Fairfax, IA (52228)

6:25 AM CDT on July 28, 2015 (GMT -0500)
Rockhurst Dr SW - Stoney Point | | Change Station
CLOSE
Current Station
Personal Weather Station
Location: Cedar Rapids, IA
Elevation: 830 ft
Nearby Weather Stations

Elev 830 ft 41.97 °N, 91.76 °W | Updated 58 seconds ago

Thunderstorm
Thunderstorm
73.6 °F
Feels Like 73.6 °F
N
2.7
Wind Variable Wind from South
Gusts 4.9 mph

Today
High -- | Low -- °F
--% Chance of Precip.
Yesterday
High -- | Low -- °F
Precip. -- in
5:56 AM 8:30 PM
Waxing Gibbous, 89% visible
Pressure 29.89 in
Visibility 8.0 miles
Clouds Scattered Clouds 11000 ft
Dew Point 73 °F
Humidity 97%
Rainfall 0.33 in
Snow Depth Not available.
UV 0.0 out of 12
Pollen 4.50 out of 12
Air Quality Not available.
Flu Activity Not available.
METAR KCID 281052Z 16006KT 8SM TS SCT110 23/23 A2991 RMK AO2 LTG DSNT W AND NW SLP121 T02330228

More Conditions Fewer Conditions

Pressure 29.89 in
Visibility 8.0 miles
Clouds Scattered Clouds 11000 ft
Dew Point 73 °F
Humidity 97%
Rainfall 0.33 in
Snow Depth Not available.
UV 0.0 out of 12
Pollen 4.50 out of 12
Air Quality Not available.
Flu Activity Not available.
METAR KCID 281052Z 16006KT 8SM TS SCT110 23/23 A2991 RMK AO2 LTG DSNT W AND NW SLP121 T02330228

More Conditions Fewer Conditions

10-Day Weather Forecast

×

Almanac

Astronomy

Jul. 28, 2015 Rise Set
Actual Time
Civil Twilight
Nautical Twilight
Astronomical Twilight
Moon
Length of Visible Light
Length of Day
Tomorrow will be .
, % of the Moon is Illuminated

Today's Extremes

State Highs State Lows

Community

WunderPhotos

Upload Photos

1,841,808 photos uploaded!

WunderBlogs® & News

Nearby

Air Quality

  Air Quality AQ Index Pollutant
Not available.

Snow Depth

Station Depth Elevation

Earthquake Activity

City Distance Mag. Time & Date
Minimum magnitude displayed is 2.5.

Coastal Water Temperatures

Place Temperature

Stations

Nearby Weather Stations

Station Location Temp. Windchill Dew Point Humidity Wind Precip. Elev Updated Type